Time;durP1;ratioP1;P1;durP2;ratioP2;P2;SDS_P1;SDS_P2;PMS_P1;PMS_P2;Temp;Humidity;BMP_temperature;BMP_pressure;BME280_temperature;BME280_humidity;BME280_pressure;Samples;Min_cycle;Max_cycle;Signal;HPM_P1;HPM_P2
2022/06/28 00:01:29;;;;;;;13.23;5.80;;;;;;;;;;5052164;28;20023;-36
2022/06/28 00:03:55;;;;;;;8.65;5.47;;;;;;;;;;5050540;28;20086;-38
2022/06/28 00:06:20;;;;;;;11.02;5.82;;;;;;;;;;5051459;28;20029;-37
2022/06/28 00:08:46;;;;;;;7.65;5.35;;;;;;;;;;5051739;28;20033;-37
2022/06/28 00:11:11;;;;;;;11.40;6.10;;;;;;;;;;5051536;28;20024;-38
2022/06/28 00:13:36;;;;;;;9.10;5.35;;;;;;;;;;5051472;28;20583;-37
2022/06/28 00:16:06;;;;;;;10.48;5.22;;;;;;;;;;5056636;28;20403;-37
2022/06/28 00:18:41;;;;;;;15.00;5.60;;;;;;;;;;5071480;28;20515;-37
2022/06/28 00:21:07;;;;;;;11.32;5.90;;;;;;;;;;5071624;28;20024;-37
2022/06/28 00:23:33;;;;;;;13.05;5.22;;;;;;;;;;5071596;28;20486;-37
2022/06/28 00:25:58;;;;;;;9.50;4.63;;;;;;;;;;5071304;28;20017;-38
2022/06/28 00:28:24;;;;;;;9.48;5.03;;;;;;;;;;5071708;28;20119;-40
2022/06/28 00:30:50;;;;;;;6.53;4.90;;;;;;;;;;5071266;28;20028;-38
2022/06/28 00:33:15;;;;;;;6.78;4.63;;;;;;;;;;5071592;28;20096;-37
2022/06/28 00:35:41;;;;;;;11.02;5.18;;;;;;;;;;5071670;28;20024;-37
2022/06/28 00:38:06;;;;;;;11.10;5.25;;;;;;;;;;5071409;28;20016;-37
2022/06/28 00:40:32;;;;;;;8.00;4.88;;;;;;;;;;5069990;28;20036;-38
2022/06/28 00:42:58;;;;;;;8.85;4.78;;;;;;;;;;5071003;28;20024;-39
2022/06/28 00:45:23;;;;;;;9.27;5.40;;;;;;;;;;5071459;28;20024;-37
2022/06/28 00:47:49;;;;;;;12.15;5.43;;;;;;;;;;5070085;28;20025;-37
2022/06/28 00:50:14;;;;;;;9.80;5.03;;;;;;;;;;5071495;28;20021;-36
2022/06/28 00:53:02;;;;;;;10.02;4.78;;;;;;;;;;5071332;28;20463;-37
2022/06/28 00:55:27;;;;;;;9.10;4.45;;;;;;;;;;5070515;28;20024;-37
2022/06/28 00:57:52;;;;;;;9.85;4.38;;;;;;;;;;5069774;28;20486;-37
2022/06/28 01:00:18;;;;;;;11.05;5.60;;;;;;;;;;5070039;28;20021;-37
2022/06/28 01:02:43;;;;;;;12.05;5.00;;;;;;;;;;5069994;28;20016;-37
2022/06/28 01:05:08;;;;;;;5.85;4.43;;;;;;;;;;5071188;28;20024;-39
2022/06/28 01:07:34;;;;;;;7.28;4.07;;;;;;;;;;5070826;28;20012;-37
2022/06/28 01:09:59;;;;;;;10.55;4.45;;;;;;;;;;5070769;28;20031;-38
2022/06/28 01:12:25;;;;;;;8.52;4.22;;;;;;;;;;5072943;28;20499;-36
2022/06/28 01:14:50;;;;;;;6.30;4.20;;;;;;;;;;5074635;28;20048;-37
2022/06/28 01:17:15;;;;;;;6.72;4.43;;;;;;;;;;5057424;28;20784;-38
2022/06/28 01:19:41;;;;;;;6.40;4.57;;;;;;;;;;5054843;28;20020;-37
2022/06/28 01:22:07;;;;;;;8.23;4.28;;;;;;;;;;5053366;28;20029;-37
2022/06/28 01:24:34;;;;;;;6.80;4.25;;;;;;;;;;5053184;28;20430;-37
2022/06/28 01:26:59;;;;;;;10.23;4.57;;;;;;;;;;5054648;28;20025;-37
2022/06/28 01:29:26;;;;;;;6.00;4.43;;;;;;;;;;5054452;28;20043;-39
2022/06/28 01:31:51;;;;;;;7.35;4.47;;;;;;;;;;5054765;28;20025;-37
2022/06/28 01:34:17;;;;;;;7.53;4.60;;;;;;;;;;5054304;28;20100;-38
2022/06/28 01:36:43;;;;;;;5.93;3.78;;;;;;;;;;5054418;28;20033;-37
2022/06/28 01:39:08;;;;;;;4.55;3.92;;;;;;;;;;5053558;28;20025;-37
2022/06/28 01:41:33;;;;;;;7.72;4.43;;;;;;;;;;5053886;28;20024;-38
2022/06/28 01:44:00;;;;;;;8.05;4.25;;;;;;;;;;5054594;28;20025;-38
2022/06/28 01:46:26;;;;;;;7.15;3.90;;;;;;;;;;5054360;28;20108;-37
2022/06/28 01:48:51;;;;;;;6.72;3.90;;;;;;;;;;5054301;28;20094;-37
2022/06/28 01:51:16;;;;;;;6.55;3.83;;;;;;;;;;5054001;28;20021;-38
2022/06/28 01:53:42;;;;;;;5.30;3.35;;;;;;;;;;5053867;28;20060;-38
2022/06/28 01:56:07;;;;;;;5.38;4.00;;;;;;;;;;5052595;28;20047;-37
2022/06/28 01:58:33;;;;;;;5.15;4.10;;;;;;;;;;5054198;28;20102;-36
2022/06/28 02:00:58;;;;;;;6.45;4.00;;;;;;;;;;5053800;28;20060;-38
2022/06/28 02:03:23;;;;;;;8.52;3.78;;;;;;;;;;5053893;28;20021;-37
2022/06/28 02:05:49;;;;;;;10.50;6.15;;;;;;;;;;5052158;28;20025;-37
2022/06/28 02:08:14;;;;;;;6.55;4.47;;;;;;;;;;5053902;28;20074;-37
2022/06/28 02:10:39;;;;;;;5.88;3.55;;;;;;;;;;5053515;28;20487;-41
2022/06/28 02:13:05;;;;;;;6.55;3.83;;;;;;;;;;5053451;28;20103;-40
2022/06/28 02:18:14;;;;;;;4.10;3.70;;;;;;;;;;5073144;28;20043;-37
2022/06/28 02:20:39;;;;;;;7.47;4.53;;;;;;;;;;5073641;28;20103;-38
2022/06/28 02:23:05;;;;;;;4.65;3.85;;;;;;;;;;5073337;28;20478;-39
2022/06/28 02:25:30;;;;;;;6.05;3.90;;;;;;;;;;5073463;28;20017;-37
2022/06/28 02:27:56;;;;;;;6.78;3.88;;;;;;;;;;5073407;28;20383;-37
2022/06/28 02:30:21;;;;;;;8.85;4.20;;;;;;;;;;5073301;28;20025;-37
2022/06/28 02:32:46;;;;;;;11.07;5.18;;;;;;;;;;5073361;28;20108;-37
2022/06/28 02:40:39;;;;;;;4.75;4.07;;;;;;;;;;5073318;28;20078;-39
2022/06/28 02:43:05;;;;;;;6.65;4.40;;;;;;;;;;5072640;28;20021;-37
2022/06/28 02:45:32;;;;;;;5.40;3.60;;;;;;;;;;5071894;28;20027;-37
2022/06/28 02:47:57;;;;;;;6.75;3.70;;;;;;;;;;5071665;28;20036;-37
2022/06/28 02:50:23;;;;;;;5.20;4.35;;;;;;;;;;5072602;28;20025;-37
2022/06/28 02:52:49;;;;;;;11.35;3.83;;;;;;;;;;5072793;28;20073;-38
2022/06/28 02:55:14;;;;;;;6.65;4.05;;;;;;;;;;5071256;28;20020;-36
2022/06/28 02:57:40;;;;;;;8.63;4.13;;;;;;;;;;5072745;28;20035;-40
2022/06/28 03:00:10;;;;;;;6.07;3.70;;;;;;;;;;5071430;28;20134;-36
2022/06/28 03:02:36;;;;;;;6.07;3.65;;;;;;;;;;5072895;28;20463;-36
2022/06/28 03:05:05;;;;;;;9.43;3.97;;;;;;;;;;5072343;28;20024;-38
2022/06/28 03:10:15;;;;;;;6.32;4.03;;;;;;;;;;5072791;28;20157;-37
2022/06/28 03:12:40;;;;;;;4.55;3.42;;;;;;;;;;5072357;28;20095;-37
2022/06/28 03:15:06;;;;;;;5.85;4.00;;;;;;;;;;5072319;28;20035;-37
2022/06/28 03:17:32;;;;;;;5.22;3.42;;;;;;;;;;5053799;28;20036;-37
2022/06/28 03:19:57;;;;;;;5.20;3.35;;;;;;;;;;5051206;28;20025;-38
2022/06/28 03:22:22;;;;;;;7.72;4.00;;;;;;;;;;5052304;28;20016;-37
2022/06/28 03:24:48;;;;;;;6.93;3.70;;;;;;;;;;5051092;28;20017;-37
2022/06/28 03:27:13;;;;;;;7.20;3.72;;;;;;;;;;5052079;28;20030;-37
2022/06/28 03:29:39;;;;;;;9.82;3.83;;;;;;;;;;5052211;28;20116;-38
2022/06/28 03:32:04;;;;;;;5.85;3.72;;;;;;;;;;5052292;28;20078;-37
2022/06/28 03:34:29;;;;;;;5.93;3.83;;;;;;;;;;5051461;28;20436;-37
2022/06/28 03:36:55;;;;;;;9.57;4.53;;;;;;;;;;5052175;28;20041;-37
2022/06/28 03:39:20;;;;;;;8.02;3.67;;;;;;;;;;5052103;28;20031;-37
2022/06/28 03:41:46;;;;;;;6.88;4.03;;;;;;;;;;5050520;28;20029;-37
2022/06/28 03:44:11;;;;;;;8.30;3.93;;;;;;;;;;5050855;28;20031;-37
2022/06/28 03:46:36;;;;;;;5.22;3.80;;;;;;;;;;5050563;28;20803;-37
2022/06/28 03:49:02;;;;;;;6.65;3.80;;;;;;;;;;5051853;28;20169;-38
2022/06/28 03:51:27;;;;;;;8.45;3.95;;;;;;;;;;5052083;28;20043;-37
2022/06/28 03:53:52;;;;;;;8.95;3.67;;;;;;;;;;5051424;28;20021;-37
2022/06/28 03:56:18;;;;;;;4.72;3.78;;;;;;;;;;5051915;28;20079;-37
2022/06/28 03:58:43;;;;;;;8.32;3.92;;;;;;;;;;5051714;28;20020;-37
2022/06/28 04:01:09;;;;;;;5.78;3.95;;;;;;;;;;5050382;28;20384;-37
2022/06/28 04:03:34;;;;;;;15.93;5.70;;;;;;;;;;5050292;28;20025;-37
2022/06/28 04:06:00;;;;;;;7.13;3.50;;;;;;;;;;5051397;28;20021;-38
2022/06/28 04:08:26;;;;;;;7.53;3.70;;;;;;;;;;5050563;28;20021;-37
2022/06/28 04:11:13;;;;;;;10.63;3.58;;;;;;;;;;5052075;28;20325;-37
2022/06/28 04:13:40;;;;;;;7.85;3.90;;;;;;;;;;5051307;28;20060;-37
2022/06/28 04:16:06;;;;;;;5.25;3.33;;;;;;;;;;5057195;28;20166;-37
2022/06/28 04:18:31;;;;;;;8.30;3.58;;;;;;;;;;5071470;28;20428;-37
2022/06/28 04:20:57;;;;;;;5.13;3.63;;;;;;;;;;5071598;28;20035;-37
2022/06/28 04:23:23;;;;;;;7.97;2.92;;;;;;;;;;5071600;28;20074;-37
2022/06/28 04:25:48;;;;;;;6.40;3.10;;;;;;;;;;5071487;28;20112;-39
2022/06/28 04:28:13;;;;;;;8.20;3.55;;;;;;;;;;5071539;28;20012;-37
2022/06/28 04:30:39;;;;;;;10.95;3.50;;;;;;;;;;5071544;28;20475;-38
2022/06/28 04:33:04;;;;;;;5.47;3.03;;;;;;;;;;5070336;28;20021;-37
2022/06/28 04:35:29;;;;;;;7.90;3.67;;;;;;;;;;5071829;28;20035;-38
2022/06/28 04:37:55;;;;;;;5.47;3.25;;;;;;;;;;5071207;28;20040;-37
2022/06/28 04:40:20;;;;;;;5.72;2.95;;;;;;;;;;5071527;28;20017;-37
2022/06/28 04:42:45;;;;;;;5.45;2.88;;;;;;;;;;5071190;28;20108;-37
2022/06/28 04:45:11;;;;;;;3.33;2.58;;;;;;;;;;5071546;28;20026;-38
2022/06/28 04:47:37;;;;;;;9.73;3.35;;;;;;;;;;5075300;28;20020;-37
2022/06/28 04:50:02;;;;;;;5.63;3.08;;;;;;;;;;5075342;28;20425;-37
2022/06/28 04:52:27;;;;;;;6.45;3.03;;;;;;;;;;5075188;28;20027;-38
2022/06/28 04:54:53;;;;;;;7.28;2.78;;;;;;;;;;5074785;28;20017;-38
2022/06/28 04:57:18;;;;;;;6.53;2.85;;;;;;;;;;5073721;28;20044;-37
2022/06/28 04:59:44;;;;;;;4.72;2.72;;;;;;;;;;5075025;28;20042;-37
2022/06/28 05:02:10;;;;;;;3.38;2.50;;;;;;;;;;5074751;28;20028;-40
2022/06/28 05:04:35;;;;;;;5.45;2.97;;;;;;;;;;5075079;28;20021;-38
2022/06/28 05:07:00;;;;;;;6.90;2.88;;;;;;;;;;5074408;28;20025;-37
2022/06/28 05:09:25;;;;;;;5.88;2.30;;;;;;;;;;5073759;28;20027;-37
2022/06/28 05:11:51;;;;;;;5.70;2.67;;;;;;;;;;5075041;28;20056;-39
2022/06/28 05:14:16;;;;;;;6.27;2.90;;;;;;;;;;5074772;28;20048;-37
2022/06/28 05:16:41;;;;;;;3.17;2.40;;;;;;;;;;5063291;28;20289;-37
2022/06/28 05:19:07;;;;;;;5.60;2.63;;;;;;;;;;5054717;28;20036;-37
2022/06/28 05:21:32;;;;;;;3.47;2.33;;;;;;;;;;5055015;28;20025;-39
2022/06/28 05:23:57;;;;;;;3.17;2.58;;;;;;;;;;5054563;28;20044;-37
2022/06/28 05:26:24;;;;;;;4.65;2.50;;;;;;;;;;5054657;28;20066;-37
2022/06/28 05:28:50;;;;;;;4.40;2.45;;;;;;;;;;5054360;28;20071;-41
2022/06/28 05:31:15;;;;;;;4.07;3.05;;;;;;;;;;5053677;28;20056;-37
2022/06/28 05:33:40;;;;;;;5.15;2.00;;;;;;;;;;5054363;28;20036;-42
2022/06/28 05:36:06;;;;;;;6.00;2.63;;;;;;;;;;5054207;28;20055;-37
2022/06/28 05:38:31;;;;;;;4.80;2.38;;;;;;;;;;5054533;28;20249;-37
2022/06/28 05:40:56;;;;;;;7.38;2.70;;;;;;;;;;5054177;28;20511;-38
2022/06/28 05:43:22;;;;;;;4.57;2.45;;;;;;;;;;5052665;28;20031;-38
2022/06/28 05:45:47;;;;;;;6.32;2.47;;;;;;;;;;5054050;28;20025;-38
2022/06/28 05:48:12;;;;;;;6.50;2.53;;;;;;;;;;5053969;28;20075;-37
2022/06/28 05:50:38;;;;;;;7.15;2.50;;;;;;;;;;5054117;28;20311;-38
2022/06/28 05:53:03;;;;;;;6.63;3.03;;;;;;;;;;5053519;28;20420;-38
2022/06/28 05:55:30;;;;;;;6.43;2.40;;;;;;;;;;5053606;28;20020;-37
2022/06/28 05:57:55;;;;;;;5.25;2.67;;;;;;;;;;5053095;28;20098;-38
2022/06/28 06:00:20;;;;;;;5.30;2.58;;;;;;;;;;5053245;28;20469;-38
2022/06/28 06:02:46;;;;;;;3.78;2.13;;;;;;;;;;5052362;28;20381;-37
2022/06/28 06:05:11;;;;;;;6.18;2.20;;;;;;;;;;5060990;28;20380;-37
2022/06/28 06:07:37;;;;;;;5.67;2.47;;;;;;;;;;5064407;28;20024;-38
2022/06/28 06:10:02;;;;;;;9.77;2.63;;;;;;;;;;5057945;28;20308;-36
2022/06/28 06:12:27;;;;;;;15.95;2.90;;;;;;;;;;5060708;28;20526;-37
2022/06/28 06:14:53;;;;;;;7.00;3.00;;;;;;;;;;5062471;28;20017;-36
2022/06/28 06:17:18;;;;;;;3.40;2.38;;;;;;;;;;5068907;28;20089;-37
2022/06/28 06:19:44;;;;;;;10.18;2.95;;;;;;;;;;5073331;28;20021;-36
2022/06/28 06:22:10;;;;;;;10.05;2.70;;;;;;;;;;5072090;28;20028;-37
2022/06/28 06:24:35;;;;;;;11.45;2.72;;;;;;;;;;5065149;28;20016;-37
2022/06/28 06:27:00;;;;;;;4.43;2.30;;;;;;;;;;5053292;28;20021;-39
2022/06/28 06:29:26;;;;;;;11.98;3.00;;;;;;;;;;5053286;28;20029;-40
2022/06/28 06:32:25;;;;;;;34.13;8.75;;;;;;;;;;5066977;28;20386;-37
2022/06/28 06:34:51;;;;;;;6.93;3.13;;;;;;;;;;5066020;28;20387;-38
2022/06/28 06:37:16;;;;;;;11.07;3.22;;;;;;;;;;5068529;28;20075;-37
2022/06/28 06:39:41;;;;;;;12.82;3.72;;;;;;;;;;5068421;28;20035;-37
2022/06/28 06:42:07;;;;;;;7.03;2.90;;;;;;;;;;5067915;28;20025;-36
2022/06/28 06:44:32;;;;;;;12.38;3.65;;;;;;;;;;5067953;28;20435;-38
2022/06/28 06:46:57;;;;;;;11.50;2.88;;;;;;;;;;5068486;28;20031;-37
2022/06/28 06:49:23;;;;;;;9.95;3.42;;;;;;;;;;5061583;28;20059;-37
2022/06/28 06:51:49;;;;;;;10.75;3.03;;;;;;;;;;5066444;28;20101;-38
2022/06/28 06:54:14;;;;;;;13.45;3.20;;;;;;;;;;5077125;28;20472;-41
2022/06/28 06:56:41;;;;;;;12.55;3.63;;;;;;;;;;5072478;28;20475;-38
2022/06/28 06:59:12;;;;;;;8.85;2.75;;;;;;;;;;5074237;28;20392;-38
2022/06/28 07:01:37;;;;;;;6.68;2.33;;;;;;;;;;5048157;28;20025;-38
2022/06/28 07:04:03;;;;;;;7.20;2.50;;;;;;;;;;5047599;28;20064;-42
2022/06/28 07:06:28;;;;;;;15.73;3.20;;;;;;;;;;5050000;28;20108;-37
2022/06/28 07:08:54;;;;;;;11.80;3.38;;;;;;;;;;5063558;28;20020;-37
2022/06/28 07:11:19;;;;;;;9.63;3.70;;;;;;;;;;5072658;28;20182;-39
2022/06/28 07:13:45;;;;;;;8.60;3.15;;;;;;;;;;5058856;28;20033;-41
2022/06/28 07:16:10;;;;;;;9.35;3.22;;;;;;;;;;5053882;28;20482;-37
2022/06/28 07:18:35;;;;;;;4.57;3.00;;;;;;;;;;5057367;28;20021;-38
2022/06/28 07:21:01;;;;;;;5.57;2.75;;;;;;;;;;5046636;28;20036;-39
2022/06/28 07:23:26;;;;;;;11.18;3.47;;;;;;;;;;5045968;28;20029;-40
2022/06/28 07:25:52;;;;;;;9.77;3.13;;;;;;;;;;5045965;28;20025;-39
2022/06/28 07:28:17;;;;;;;10.25;3.25;;;;;;;;;;5045992;28;20022;-39
2022/06/28 07:30:43;;;;;;;6.03;2.63;;;;;;;;;;5047203;28;20056;-39
2022/06/28 07:33:09;;;;;;;8.50;2.93;;;;;;;;;;5047045;28;20420;-39
2022/06/28 07:35:34;;;;;;;10.27;3.65;;;;;;;;;;5047357;28;20021;-38
2022/06/28 07:38:00;;;;;;;10.10;2.72;;;;;;;;;;5047380;28;20108;-39
2022/06/28 07:40:25;;;;;;;7.68;2.83;;;;;;;;;;5046114;28;20021;-39
2022/06/28 07:42:50;;;;;;;13.05;3.17;;;;;;;;;;5037525;28;20021;-38
2022/06/28 07:45:16;;;;;;;9.57;2.60;;;;;;;;;;5032321;28;20358;-39
2022/06/28 07:47:41;;;;;;;6.25;3.15;;;;;;;;;;5034273;28;20250;-39
2022/06/28 07:52:51;;;;;;;12.18;2.83;;;;;;;;;;5034196;28;20067;-38
2022/06/28 07:55:16;;;;;;;5.32;2.50;;;;;;;;;;5033519;28;20057;-39
2022/06/28 07:57:41;;;;;;;7.35;2.75;;;;;;;;;;5031756;28;20033;-37
2022/06/28 08:00:08;;;;;;;10.52;2.40;;;;;;;;;;5032526;28;20017;-37
2022/06/28 08:02:33;;;;;;;8.93;2.55;;;;;;;;;;5032648;28;20025;-37
2022/06/28 08:04:58;;;;;;;9.98;3.22;;;;;;;;;;5031618;28;20031;-37
2022/06/28 08:07:24;;;;;;;7.82;2.50;;;;;;;;;;5034023;28;20044;-37
2022/06/28 08:09:49;;;;;;;10.05;2.58;;;;;;;;;;5031985;28;20021;-37
2022/06/28 08:12:15;;;;;;;10.57;2.65;;;;;;;;;;5032033;28;20037;-37
2022/06/28 08:14:40;;;;;;;7.00;2.80;;;;;;;;;;5033200;28;20380;-37
2022/06/28 08:17:06;;;;;;;9.23;2.58;;;;;;;;;;5033920;28;20376;-37
2022/06/28 08:19:32;;;;;;;9.35;2.30;;;;;;;;;;5031799;28;20022;-37
2022/06/28 08:21:57;;;;;;;11.43;2.85;;;;;;;;;;5033434;28;20109;-38
2022/06/28 08:24:23;;;;;;;9.10;2.97;;;;;;;;;;5032833;28;20028;-38
2022/06/28 08:26:48;;;;;;;8.05;2.38;;;;;;;;;;5033463;28;20547;-40
2022/06/28 08:29:14;;;;;;;6.93;2.75;;;;;;;;;;5032952;28;20025;-38
2022/06/28 08:31:40;;;;;;;11.18;2.40;;;;;;;;;;5031715;28;20092;-38
2022/06/28 08:34:05;;;;;;;7.20;2.63;;;;;;;;;;5031234;28;20025;-37
2022/06/28 08:36:31;;;;;;;7.35;2.53;;;;;;;;;;5033204;28;20029;-36
2022/06/28 08:38:56;;;;;;;12.50;2.65;;;;;;;;;;5031660;28;20056;-37
2022/06/28 08:41:22;;;;;;;16.05;2.92;;;;;;;;;;5032764;28;20447;-39
2022/06/28 08:43:47;;;;;;;11.50;2.60;;;;;;;;;;5032134;28;20025;-39
2022/06/28 08:46:14;;;;;;;5.93;2.35;;;;;;;;;;5032981;28;20021;-37
2022/06/28 08:48:43;;;;;;;6.70;2.17;;;;;;;;;;5032745;28;20075;-38
2022/06/28 08:51:09;;;;;;;8.75;1.83;;;;;;;;;;5032628;28;20088;-37
2022/06/28 08:53:36;;;;;;;11.95;2.25;;;;;;;;;;5032136;28;20030;-39
2022/06/28 08:56:01;;;;;;;6.40;2.05;;;;;;;;;;5031690;28;20030;-40
2022/06/28 08:58:27;;;;;;;9.05;2.10;;;;;;;;;;5031273;28;20025;-39
2022/06/28 09:00:53;;;;;;;5.20;2.00;;;;;;;;;;5032130;28;20643;-39
2022/06/28 09:03:19;;;;;;;7.75;2.08;;;;;;;;;;5032684;28;20037;-40
2022/06/28 09:05:44;;;;;;;5.15;2.00;;;;;;;;;;5030880;28;20029;-39
2022/06/28 09:08:10;;;;;;;8.98;1.98;;;;;;;;;;5032326;28;20483;-39
2022/06/28 09:10:35;;;;;;;11.88;2.53;;;;;;;;;;5031768;28;20029;-39
2022/06/28 09:13:08;;;;;;;8.43;2.95;;;;;;;;;;5030894;28;20025;-38
2022/06/28 09:15:53;;;;;;;8.55;2.22;;;;;;;;;;5030580;28;20392;-37
2022/06/28 09:18:20;;;;;;;4.93;2.20;;;;;;;;;;5022313;28;20112;-37
2022/06/28 09:20:46;;;;;;;5.30;1.77;;;;;;;;;;5031030;28;20017;-37
2022/06/28 09:23:23;;;;;;;8.25;2.00;;;;;;;;;;5031959;28;20026;-39
2022/06/28 09:25:49;;;;;;;3.28;2.08;;;;;;;;;;5031382;28;20040;-39
2022/06/28 09:28:21;;;;;;;10.38;2.28;;;;;;;;;;5030624;28;20029;-37
2022/06/28 09:30:47;;;;;;;8.10;2.28;;;;;;;;;;5031515;28;20057;-39
2022/06/28 09:33:24;;;;;;;8.00;2.53;;;;;;;;;;5031931;28;20557;-37
2022/06/28 09:35:52;;;;;;;7.45;2.58;;;;;;;;;;5030357;28;20076;-38
2022/06/28 09:38:32;;;;;;;10.52;3.03;;;;;;;;;;5031664;28;20028;-37
2022/06/28 09:40:58;;;;;;;7.55;2.60;;;;;;;;;;5024557;28;20112;-38
2022/06/28 09:43:29;;;;;;;5.10;2.53;;;;;;;;;;5025279;28;20055;-40
2022/06/28 09:45:56;;;;;;;5.38;2.33;;;;;;;;;;5026849;28;20021;-37
2022/06/28 09:48:22;;;;;;;7.43;2.35;;;;;;;;;;5028935;28;20027;-36
2022/06/28 09:50:47;;;;;;;11.45;2.38;;;;;;;;;;5031764;28;20108;-41
2022/06/28 09:53:19;;;;;;;7.25;2.55;;;;;;;;;;5031590;28;20032;-37
2022/06/28 09:55:45;;;;;;;8.35;2.20;;;;;;;;;;5030489;28;20021;-38
2022/06/28 09:58:10;;;;;;;13.30;3.08;;;;;;;;;;5031484;28;20350;-37
2022/06/28 10:00:39;;;;;;;9.52;2.45;;;;;;;;;;5031512;28;20022;-37
2022/06/28 10:03:05;;;;;;;8.68;2.47;;;;;;;;;;5031319;28;20021;-37
2022/06/28 10:05:30;;;;;;;5.75;2.20;;;;;;;;;;5030854;28;20033;-37
2022/06/28 10:07:57;;;;;;;9.27;2.17;;;;;;;;;;5031102;28;20021;-39
2022/06/28 10:10:22;;;;;;;6.43;2.03;;;;;;;;;;5030662;28;20377;-42
2022/06/28 10:15:40;;;;;;;10.63;2.17;;;;;;;;;;5023862;28;20030;-38
2022/06/28 10:18:19;;;;;;;4.55;1.75;;;;;;;;;;5017900;28;20025;-38
2022/06/28 10:20:44;;;;;;;7.70;2.67;;;;;;;;;;5023642;28;20026;-38
2022/06/28 10:23:19;;;;;;;8.38;2.35;;;;;;;;;;5011536;28;20105;-39
2022/06/28 10:25:59;;;;;;;11.20;2.40;;;;;;;;;;5010839;28;20026;-38
2022/06/28 10:28:25;;;;;;;4.28;2.15;;;;;;;;;;5023404;28;20021;-38
2022/06/28 10:31:11;;;;;;;12.25;2.63;;;;;;;;;;5027308;28;20049;-38
2022/06/28 10:33:40;;;;;;;11.55;2.33;;;;;;;;;;5011636;28;20056;-39
2022/06/28 10:36:15;;;;;;;3.55;2.05;;;;;;;;;;5025710;28;20026;-38
2022/06/28 10:38:59;;;;;;;6.38;2.35;;;;;;;;;;5011166;28;20104;-39
2022/06/28 10:41:35;;;;;;;7.13;2.45;;;;;;;;;;5020685;28;20033;-38
2022/06/28 10:44:16;;;;;;;6.80;2.17;;;;;;;;;;5027320;28;20024;-38
2022/06/28 10:46:47;;;;;;;6.55;2.20;;;;;;;;;;5018998;28;20125;-39
2022/06/28 10:49:13;;;;;;;5.95;2.35;;;;;;;;;;5011438;28;20022;-38
2022/06/28 10:52:01;;;;;;;7.93;2.20;;;;;;;;;;5011457;28;20053;-40
2022/06/28 10:54:26;;;;;;;7.43;2.20;;;;;;;;;;5011010;28;20026;-38
2022/06/28 10:56:52;;;;;;;8.93;2.35;;;;;;;;;;5021360;28;20029;-38
2022/06/28 10:59:18;;;;;;;5.95;1.88;;;;;;;;;;5010942;28;20033;-41
2022/06/28 11:01:46;;;;;;;8.60;2.60;;;;;;;;;;5015957;28;20025;-39
2022/06/28 11:04:23;;;;;;;7.88;2.38;;;;;;;;;;5029850;28;20021;-40
2022/06/28 11:06:54;;;;;;;8.75;2.20;;;;;;;;;;5030384;28;20075;-40
2022/06/28 11:09:19;;;;;;;8.65;2.50;;;;;;;;;;5030747;28;20037;-41
2022/06/28 11:12:23;;;;;;;8.17;2.47;;;;;;;;;;5030348;28;20041;-41
2022/06/28 11:14:49;;;;;;;5.63;1.98;;;;;;;;;;5007468;28;20287;-38
2022/06/28 11:17:15;;;;;;;9.77;2.22;;;;;;;;;;5008450;28;20726;-38
2022/06/28 11:19:50;;;;;;;5.63;1.80;;;;;;;;;;5012763;28;20129;-38
2022/06/28 11:22:17;;;;;;;9.32;1.95;;;;;;;;;;5014728;28;20026;-38
2022/06/28 11:24:45;;;;;;;9.60;2.33;;;;;;;;;;5013748;28;20022;-39
2022/06/28 11:27:22;;;;;;;7.53;1.88;;;;;;;;;;5016274;28;20022;-39
2022/06/28 11:30:00;;;;;;;4.38;1.50;;;;;;;;;;5034397;28;20036;-38
2022/06/28 11:32:48;;;;;;;4.65;1.55;;;;;;;;;;5033887;28;20045;-39
2022/06/28 11:35:23;;;;;;;8.93;1.73;;;;;;;;;;5033179;28;20513;-38
2022/06/28 11:37:55;;;;;;;6.03;1.38;;;;;;;;;;5033597;28;20021;-39
2022/06/28 11:40:27;;;;;;;7.60;1.58;;;;;;;;;;5033969;28;20033;-38
2022/06/28 11:43:02;;;;;;;8.63;2.20;;;;;;;;;;5031658;28;20108;-38
2022/06/28 11:45:30;;;;;;;5.13;1.60;;;;;;;;;;5031842;28;20055;-38
2022/06/28 11:47:55;;;;;;;7.87;1.83;;;;;;;;;;5033845;28;20487;-39
2022/06/28 11:50:21;;;;;;;6.55;1.60;;;;;;;;;;5033872;28;20022;-41
2022/06/28 11:52:51;;;;;;;6.00;1.90;;;;;;;;;;5034015;28;20124;-39
2022/06/28 11:55:16;;;;;;;5.07;1.85;;;;;;;;;;5033235;28;20412;-38
2022/06/28 11:57:42;;;;;;;6.45;1.73;;;;;;;;;;5032979;28;20021;-38
2022/06/28 12:00:07;;;;;;;4.93;1.83;;;;;;;;;;5033668;28;20022;-39
2022/06/28 12:02:36;;;;;;;7.50;1.58;;;;;;;;;;5033846;28;20358;-38
2022/06/28 12:05:02;;;;;;;8.40;1.98;;;;;;;;;;5032891;28;20029;-39
2022/06/28 12:07:34;;;;;;;5.80;1.67;;;;;;;;;;5032859;28;20105;-39
2022/06/28 12:09:59;;;;;;;10.30;1.90;;;;;;;;;;5033606;28;20311;-38
2022/06/28 12:12:24;;;;;;;2.57;1.70;;;;;;;;;;5033330;28;20040;-38
2022/06/28 12:14:55;;;;;;;4.63;1.67;;;;;;;;;;5032729;28;20300;-40
2022/06/28 12:17:20;;;;;;;7.05;1.70;;;;;;;;;;5031936;28;20304;-42
2022/06/28 12:19:45;;;;;;;4.18;1.50;;;;;;;;;;5033270;28;20100;-39
2022/06/28 12:22:12;;;;;;;2.08;1.60;;;;;;;;;;5033030;28;20021;-39
2022/06/28 12:24:44;;;;;;;9.23;1.95;;;;;;;;;;5032754;28;20488;-40
2022/06/28 12:27:12;;;;;;;5.20;1.63;;;;;;;;;;5033066;28;20026;-40
2022/06/28 12:29:37;;;;;;;3.88;1.63;;;;;;;;;;5032848;28;20164;-38
2022/06/28 12:32:03;;;;;;;4.35;1.88;;;;;;;;;;5033007;28;20128;-38
2022/06/28 12:34:29;;;;;;;3.95;1.65;;;;;;;;;;5032638;28;20176;-39
2022/06/28 12:36:54;;;;;;;7.03;2.10;;;;;;;;;;5033171;28;20140;-40
2022/06/28 12:39:19;;;;;;;4.75;1.85;;;;;;;;;;5033196;28;20021;-38
2022/06/28 12:41:45;;;;;;;6.47;2.30;;;;;;;;;;5032546;28;20021;-38
2022/06/28 12:44:11;;;;;;;4.97;1.80;;;;;;;;;;5031910;28;20334;-41
2022/06/28 12:46:37;;;;;;;4.28;1.50;;;;;;;;;;5032306;28;20093;-39
2022/06/28 12:49:02;;;;;;;6.70;2.10;;;;;;;;;;5033271;28;20025;-39
2022/06/28 12:51:28;;;;;;;5.90;1.42;;;;;;;;;;5029430;28;20053;-39
2022/06/28 12:53:54;;;;;;;6.55;1.65;;;;;;;;;;5026819;28;20095;-39
2022/06/28 12:56:19;;;;;;;6.25;2.00;;;;;;;;;;5022958;28;20052;-39
2022/06/28 12:58:45;;;;;;;7.32;2.00;;;;;;;;;;5027191;28;20029;-44
2022/06/28 13:01:11;;;;;;;4.22;1.92;;;;;;;;;;5027644;28;20026;-39
2022/06/28 13:03:37;;;;;;;2.47;1.50;;;;;;;;;;5029117;28;20045;-38
2022/06/28 13:06:02;;;;;;;39.65;3.72;;;;;;;;;;5025954;28;20021;-39
2022/06/28 13:08:28;;;;;;;4.85;2.00;;;;;;;;;;5028716;28;20091;-43
2022/06/28 13:10:53;;;;;;;5.00;1.50;;;;;;;;;;5020762;28;20037;-38
2022/06/28 13:13:20;;;;;;;7.30;2.03;;;;;;;;;;5026734;28;20266;-39
2022/06/28 13:15:46;;;;;;;5.25;2.20;;;;;;;;;;5026408;28;20361;-39
2022/06/28 13:18:11;;;;;;;4.80;1.95;;;;;;;;;;5015258;28;20032;-42
2022/06/28 13:20:36;;;;;;;5.10;1.87;;;;;;;;;;5023786;28;20064;-38
2022/06/28 13:23:03;;;;;;;3.63;1.83;;;;;;;;;;5030174;28;20301;-38
2022/06/28 13:25:28;;;;;;;9.07;1.63;;;;;;;;;;5026446;28;20053;-37
2022/06/28 13:27:54;;;;;;;9.80;1.85;;;;;;;;;;5029465;28;20527;-38
2022/06/28 13:30:19;;;;;;;6.25;1.88;;;;;;;;;;5028302;28;20057;-38
2022/06/28 13:32:45;;;;;;;5.30;2.10;;;;;;;;;;5028055;28;20053;-38
2022/06/28 13:35:10;;;;;;;8.23;1.88;;;;;;;;;;5030577;28;20009;-37
2022/06/28 13:37:35;;;;;;;6.10;2.15;;;;;;;;;;5029417;28;20018;-38
2022/06/28 13:40:01;;;;;;;8.53;2.47;;;;;;;;;;5028324;28;20022;-38
2022/06/28 13:42:26;;;;;;;8.37;2.17;;;;;;;;;;5026635;28;20400;-39
2022/06/28 13:44:52;;;;;;;5.47;1.90;;;;;;;;;;5028573;28;20297;-38
2022/06/28 13:47:18;;;;;;;19.55;2.97;;;;;;;;;;5027848;28;20271;-37
2022/06/28 13:49:43;;;;;;;6.90;2.20;;;;;;;;;;5026328;28;20033;-39
2022/06/28 13:52:09;;;;;;;196.90;102.82;;;;;;;;;;5030078;28;20041;-40
2022/06/28 13:54:35;;;;;;;28.50;6.65;;;;;;;;;;5028637;28;20025;-40
2022/06/28 13:57:01;;;;;;;41.55;11.40;;;;;;;;;;5030027;28;20116;-38
2022/06/28 13:59:26;;;;;;;2.65;1.38;;;;;;;;;;5028988;28;20021;-37
2022/06/28 14:01:51;;;;;;;5.38;1.48;;;;;;;;;;5029782;28;20061;-38
2022/06/28 14:04:17;;;;;;;4.47;1.70;;;;;;;;;;5030381;28;20556;-37
2022/06/28 14:06:43;;;;;;;5.45;1.70;;;;;;;;;;5027063;28;20020;-38
2022/06/28 14:09:08;;;;;;;3.53;1.58;;;;;;;;;;5028565;28;20025;-37
2022/06/28 14:11:33;;;;;;;3.50;1.37;;;;;;;;;;5029369;28;20029;-38
2022/06/28 14:13:59;;;;;;;6.23;2.03;;;;;;;;;;5023006;28;20340;-38
2022/06/28 14:16:24;;;;;;;12.25;1.90;;;;;;;;;;5022646;28;20325;-39
2022/06/28 14:18:50;;;;;;;6.85;1.58;;;;;;;;;;5025879;28;20112;-42
2022/06/28 14:21:15;;;;;;;3.03;1.50;;;;;;;;;;5029659;28;20064;-40
2022/06/28 14:23:40;;;;;;;3.20;1.65;;;;;;;;;;5022701;28;20577;-42
2022/06/28 14:26:06;;;;;;;4.70;1.73;;;;;;;;;;5029905;28;20620;-38
2022/06/28 14:28:31;;;;;;;8.38;2.13;;;;;;;;;;5030342;28;20021;-38
2022/06/28 14:30:57;;;;;;;9.25;1.98;;;;;;;;;;5028527;28;20057;-38
2022/06/28 14:33:22;;;;;;;5.05;1.60;;;;;;;;;;5027314;28;20684;-38
2022/06/28 14:35:48;;;;;;;5.68;1.92;;;;;;;;;;5028032;28;20519;-40
2022/06/28 14:38:14;;;;;;;5.18;1.60;;;;;;;;;;5026790;28;20381;-39
2022/06/28 14:40:39;;;;;;;75.80;19.63;;;;;;;;;;5025588;28;20075;-42
2022/06/28 14:43:04;;;;;;;186.00;77.20;;;;;;;;;;5026731;28;20018;-41
2022/06/28 14:45:30;;;;;;;14.43;4.03;;;;;;;;;;5029420;28;20239;-38
2022/06/28 14:47:55;;;;;;;13.95;3.22;;;;;;;;;;5030934;28;20095;-39
2022/06/28 14:50:21;;;;;;;10.70;2.70;;;;;;;;;;5030902;28;20099;-38
2022/06/28 14:52:46;;;;;;;11.52;2.85;;;;;;;;;;5031021;28;20029;-39
2022/06/28 14:55:12;;;;;;;18.52;3.88;;;;;;;;;;5034829;28;20017;-38